sensor_id;sensor_type;location;lat;lon;timestamp;temperature;humidity
33207;DHT22;19565;46.602;11.534;2023-11-21T00:00:04;6.40;99.90
33207;DHT22;19565;46.602;11.534;2023-11-21T00:02:39;6.40;99.90
33207;DHT22;19565;46.602;11.534;2023-11-21T00:05:09;6.50;99.90
33207;DHT22;19565;46.602;11.534;2023-11-21T00:07:38;6.50;99.90
33207;DHT22;19565;46.602;11.534;2023-11-21T00:10:06;6.50;99.90
33207;DHT22;19565;46.602;11.534;2023-11-21T00:12:35;6.50;99.90
33207;DHT22;19565;46.602;11.534;2023-11-21T00:15:04;6.50;99.90
33207;DHT22;19565;46.602;11.534;2023-11-21T00:17:36;6.50;99.90
33207;DHT22;19565;46.602;11.534;2023-11-21T00:20:05;6.50;99.90
33207;DHT22;19565;46.602;11.534;2023-11-21T00:22:35;6.50;99.90
33207;DHT22;19565;46.602;11.534;2023-11-21T00:25:04;6.40;99.90
33207;DHT22;19565;46.602;11.534;2023-11-21T00:27:32;6.40;99.90
33207;DHT22;19565;46.602;11.534;2023-11-21T00:30:02;6.30;99.90
33207;DHT22;19565;46.602;11.534;2023-11-21T00:32:32;6.30;99.90
33207;DHT22;19565;46.602;11.534;2023-11-21T00:35:00;6.30;99.90
33207;DHT22;19565;46.602;11.534;2023-11-21T00:37:28;6.40;99.90
33207;DHT22;19565;46.602;11.534;2023-11-21T00:40:00;6.40;99.90
33207;DHT22;19565;46.602;11.534;2023-11-21T00:42:31;6.40;99.90
33207;DHT22;19565;46.602;11.534;2023-11-21T00:45:00;6.30;99.90
33207;DHT22;19565;46.602;11.534;2023-11-21T00:47:28;6.30;99.90
33207;DHT22;19565;46.602;11.534;2023-11-21T00:49:56;6.30;99.90
33207;DHT22;19565;46.602;11.534;2023-11-21T00:52:24;6.30;99.90
33207;DHT22;19565;46.602;11.534;2023-11-21T00:54:52;6.30;99.90
33207;DHT22;19565;46.602;11.534;2023-11-21T00:57:22;6.30;99.90
33207;DHT22;19565;46.602;11.534;2023-11-21T00:59:50;6.30;99.90
33207;DHT22;19565;46.602;11.534;2023-11-21T01:02:18;6.30;99.90
33207;DHT22;19565;46.602;11.534;2023-11-21T01:04:46;6.30;99.90
33207;DHT22;19565;46.602;11.534;2023-11-21T01:07:14;6.30;99.90
33207;DHT22;19565;46.602;11.534;2023-11-21T01:09:43;6.30;99.90
33207;DHT22;19565;46.602;11.534;2023-11-21T01:12:11;6.30;99.90
33207;DHT22;19565;46.602;11.534;2023-11-21T01:14:40;6.30;99.90
33207;DHT22;19565;46.602;11.534;2023-11-21T01:17:08;6.20;99.90
33207;DHT22;19565;46.602;11.534;2023-11-21T01:19:36;6.30;99.90
33207;DHT22;19565;46.602;11.534;2023-11-21T01:22:05;6.30;99.90
33207;DHT22;19565;46.602;11.534;2023-11-21T01:24:33;6.40;99.90
33207;DHT22;19565;46.602;11.534;2023-11-21T01:27:01;6.30;99.90
33207;DHT22;19565;46.602;11.534;2023-11-21T01:29:29;6.30;99.90
33207;DHT22;19565;46.602;11.534;2023-11-21T01:31:58;6.30;99.90
33207;DHT22;19565;46.602;11.534;2023-11-21T01:34:26;6.30;99.90
33207;DHT22;19565;46.602;11.534;2023-11-21T01:36:54;6.10;99.90
33207;DHT22;19565;46.602;11.534;2023-11-21T01:39:22;5.90;99.90
33207;DHT22;19565;46.602;11.534;2023-11-21T01:41:51;5.90;99.90
33207;DHT22;19565;46.602;11.534;2023-11-21T01:44:19;6.00;99.90
33207;DHT22;19565;46.602;11.534;2023-11-21T01:46:47;6.10;99.90
33207;DHT22;19565;46.602;11.534;2023-11-21T01:49:17;6.10;99.90
33207;DHT22;19565;46.602;11.534;2023-11-21T01:51:48;6.10;99.90
33207;DHT22;19565;46.602;11.534;2023-11-21T01:54:17;6.00;99.90
33207;DHT22;19565;46.602;11.534;2023-11-21T01:56:47;6.00;99.90
33207;DHT22;19565;46.602;11.534;2023-11-21T01:59:21;6.00;99.90
33207;DHT22;19565;46.602;11.534;2023-11-21T02:01:50;6.10;99.90
33207;DHT22;19565;46.602;11.534;2023-11-21T02:04:19;6.10;99.90
33207;DHT22;19565;46.602;11.534;2023-11-21T02:06:48;6.10;99.90
33207;DHT22;19565;46.602;11.534;2023-11-21T02:09:24;6.10;99.90
33207;DHT22;19565;46.602;11.534;2023-11-21T02:11:52;6.10;99.90
33207;DHT22;19565;46.602;11.534;2023-11-21T02:14:24;6.10;99.90
33207;DHT22;19565;46.602;11.534;2023-11-21T02:16:54;6.10;99.90
33207;DHT22;19565;46.602;11.534;2023-11-21T02:19:25;6.00;99.90
33207;DHT22;19565;46.602;11.534;2023-11-21T02:21:53;6.00;99.90
33207;DHT22;19565;46.602;11.534;2023-11-21T02:24:23;5.90;99.90
33207;DHT22;19565;46.602;11.534;2023-11-21T02:26:51;5.90;99.90
33207;DHT22;19565;46.602;11.534;2023-11-21T02:29:19;6.00;99.90
33207;DHT22;19565;46.602;11.534;2023-11-21T02:31:51;6.00;99.90
33207;DHT22;19565;46.602;11.534;2023-11-21T02:34:23;6.00;99.90
33207;DHT22;19565;46.602;11.534;2023-11-21T02:36:52;5.90;99.90
33207;DHT22;19565;46.602;11.534;2023-11-21T02:39:21;5.90;99.90
33207;DHT22;19565;46.602;11.534;2023-11-21T02:41:51;5.90;99.90
33207;DHT22;19565;46.602;11.534;2023-11-21T02:44:20;5.90;99.90
33207;DHT22;19565;46.602;11.534;2023-11-21T02:46:48;5.90;99.90
33207;DHT22;19565;46.602;11.534;2023-11-21T02:49:16;5.90;99.90
33207;DHT22;19565;46.602;11.534;2023-11-21T02:51:44;5.90;99.90
33207;DHT22;19565;46.602;11.534;2023-11-21T02:54:12;5.90;99.90
33207;DHT22;19565;46.602;11.534;2023-11-21T02:56:41;5.90;99.90
33207;DHT22;19565;46.602;11.534;2023-11-21T02:59:10;5.90;99.90
33207;DHT22;19565;46.602;11.534;2023-11-21T03:01:38;5.80;99.90
33207;DHT22;19565;46.602;11.534;2023-11-21T03:04:06;5.80;99.90
33207;DHT22;19565;46.602;11.534;2023-11-21T03:06:34;5.90;99.90
33207;DHT22;19565;46.602;11.534;2023-11-21T03:09:02;5.80;99.90
33207;DHT22;19565;46.602;11.534;2023-11-21T03:11:30;5.80;99.90
33207;DHT22;19565;46.602;11.534;2023-11-21T03:13:59;5.80;99.90
33207;DHT22;19565;46.602;11.534;2023-11-21T03:16:28;5.80;99.90
33207;DHT22;19565;46.602;11.534;2023-11-21T03:18:58;5.80;99.90
33207;DHT22;19565;46.602;11.534;2023-11-21T03:21:26;5.80;99.90
33207;DHT22;19565;46.602;11.534;2023-11-21T03:23:54;5.80;99.90
33207;DHT22;19565;46.602;11.534;2023-11-21T03:26:22;5.70;99.90
33207;DHT22;19565;46.602;11.534;2023-11-21T03:28:50;5.60;99.90
33207;DHT22;19565;46.602;11.534;2023-11-21T03:31:20;5.60;99.90
33207;DHT22;19565;46.602;11.534;2023-11-21T03:33:49;5.60;99.90
33207;DHT22;19565;46.602;11.534;2023-11-21T03:36:17;5.60;99.90
33207;DHT22;19565;46.602;11.534;2023-11-21T03:38:45;5.60;99.90
33207;DHT22;19565;46.602;11.534;2023-11-21T03:41:13;5.60;99.90
33207;DHT22;19565;46.602;11.534;2023-11-21T03:43:41;5.50;99.90
33207;DHT22;19565;46.602;11.534;2023-11-21T03:46:09;5.50;99.90
33207;DHT22;19565;46.602;11.534;2023-11-21T03:48:39;5.50;99.90
33207;DHT22;19565;46.602;11.534;2023-11-21T03:51:08;5.40;99.90
33207;DHT22;19565;46.602;11.534;2023-11-21T03:53:36;5.40;99.90
33207;DHT22;19565;46.602;11.534;2023-11-21T03:56:05;5.30;99.90
33207;DHT22;19565;46.602;11.534;2023-11-21T03:58:33;5.30;99.90
33207;DHT22;19565;46.602;11.534;2023-11-21T04:01:01;5.30;99.90
33207;DHT22;19565;46.602;11.534;2023-11-21T04:03:29;5.10;99.90
33207;DHT22;19565;46.602;11.534;2023-11-21T04:05:57;5.20;99.90
33207;DHT22;19565;46.602;11.534;2023-11-21T04:08:27;5.30;99.90
33207;DHT22;19565;46.602;11.534;2023-11-21T04:10:55;5.40;99.90
33207;DHT22;19565;46.602;11.534;2023-11-21T04:13:23;5.30;99.90
33207;DHT22;19565;46.602;11.534;2023-11-21T04:15:51;5.30;99.90
33207;DHT22;19565;46.602;11.534;2023-11-21T04:18:19;5.30;99.90
33207;DHT22;19565;46.602;11.534;2023-11-21T04:20:49;5.30;99.90
33207;DHT22;19565;46.602;11.534;2023-11-21T04:23:17;5.20;99.90
33207;DHT22;19565;46.602;11.534;2023-11-21T04:25:46;5.30;99.90
33207;DHT22;19565;46.602;11.534;2023-11-21T04:28:14;5.30;99.90
33207;DHT22;19565;46.602;11.534;2023-11-21T04:30:42;5.30;99.90
33207;DHT22;19565;46.602;11.534;2023-11-21T04:33:10;5.30;99.90
33207;DHT22;19565;46.602;11.534;2023-11-21T04:35:38;5.30;99.90
33207;DHT22;19565;46.602;11.534;2023-11-21T04:38:06;5.30;99.90
33207;DHT22;19565;46.602;11.534;2023-11-21T04:40:34;5.20;99.90
33207;DHT22;19565;46.602;11.534;2023-11-21T04:43:04;5.30;99.90
33207;DHT22;19565;46.602;11.534;2023-11-21T04:45:32;5.40;99.90
33207;DHT22;19565;46.602;11.534;2023-11-21T04:48:00;5.40;99.90
33207;DHT22;19565;46.602;11.534;2023-11-21T04:50:28;5.40;99.90
33207;DHT22;19565;46.602;11.534;2023-11-21T04:52:55;5.40;99.90
33207;DHT22;19565;46.602;11.534;2023-11-21T04:55:23;5.30;99.90
33207;DHT22;19565;46.602;11.534;2023-11-21T04:57:54;5.30;99.90
33207;DHT22;19565;46.602;11.534;2023-11-21T05:00:24;5.30;99.90
33207;DHT22;19565;46.602;11.534;2023-11-21T05:02:52;5.30;99.90
33207;DHT22;19565;46.602;11.534;2023-11-21T05:05:20;5.20;99.90
33207;DHT22;19565;46.602;11.534;2023-11-21T05:07:49;5.20;99.90
33207;DHT22;19565;46.602;11.534;2023-11-21T05:10:17;5.20;99.90
33207;DHT22;19565;46.602;11.534;2023-11-21T05:12:45;5.20;99.90
33207;DHT22;19565;46.602;11.534;2023-11-21T05:15:15;5.20;99.90
33207;DHT22;19565;46.602;11.534;2023-11-21T05:17:45;5.30;99.90
33207;DHT22;19565;46.602;11.534;2023-11-21T05:20:16;5.20;99.90
33207;DHT22;19565;46.602;11.534;2023-11-21T05:22:47;5.20;99.90
33207;DHT22;19565;46.602;11.534;2023-11-21T05:25:16;5.20;99.90
33207;DHT22;19565;46.602;11.534;2023-11-21T05:27:45;5.00;99.90
33207;DHT22;19565;46.602;11.534;2023-11-21T05:30:13;5.10;99.90
33207;DHT22;19565;46.602;11.534;2023-11-21T05:32:41;5.10;99.90
33207;DHT22;19565;46.602;11.534;2023-11-21T05:35:11;5.20;99.90
33207;DHT22;19565;46.602;11.534;2023-11-21T05:37:43;4.90;99.90
33207;DHT22;19565;46.602;11.534;2023-11-21T05:40:11;4.80;99.90
33207;DHT22;19565;46.602;11.534;2023-11-21T05:42:40;4.80;99.90
33207;DHT22;19565;46.602;11.534;2023-11-21T05:45:09;4.70;99.90
33207;DHT22;19565;46.602;11.534;2023-11-21T05:47:38;4.80;99.90
33207;DHT22;19565;46.602;11.534;2023-11-21T05:50:08;4.90;99.90
33207;DHT22;19565;46.602;11.534;2023-11-21T05:52:40;5.00;99.90
33207;DHT22;19565;46.602;11.534;2023-11-21T05:55:09;5.00;99.90
33207;DHT22;19565;46.602;11.534;2023-11-21T05:57:38;5.00;99.90
33207;DHT22;19565;46.602;11.534;2023-11-21T06:00:08;5.10;99.90
33207;DHT22;19565;46.602;11.534;2023-11-21T06:02:42;5.20;99.90
33207;DHT22;19565;46.602;11.534;2023-11-21T06:05:10;5.10;99.90
33207;DHT22;19565;46.602;11.534;2023-11-21T06:07:39;5.10;99.90
33207;DHT22;19565;46.602;11.534;2023-11-21T06:10:08;5.10;99.90
33207;DHT22;19565;46.602;11.534;2023-11-21T06:12:38;5.00;99.90
33207;DHT22;19565;46.602;11.534;2023-11-21T06:15:08;5.10;99.90
33207;DHT22;19565;46.602;11.534;2023-11-21T06:17:39;5.10;99.90
33207;DHT22;19565;46.602;11.534;2023-11-21T06:20:09;5.10;99.90
33207;DHT22;19565;46.602;11.534;2023-11-21T06:22:42;5.10;99.90
33207;DHT22;19565;46.602;11.534;2023-11-21T06:25:12;5.10;99.90
33207;DHT22;19565;46.602;11.534;2023-11-21T06:27:42;5.10;99.90
33207;DHT22;19565;46.602;11.534;2023-11-21T06:30:12;5.10;99.90
33207;DHT22;19565;46.602;11.534;2023-11-21T06:32:41;5.10;99.90
33207;DHT22;19565;46.602;11.534;2023-11-21T06:35:13;4.90;99.90
33207;DHT22;19565;46.602;11.534;2023-11-21T06:37:44;4.90;99.90
33207;DHT22;19565;46.602;11.534;2023-11-21T06:40:16;5.10;99.90
33207;DHT22;19565;46.602;11.534;2023-11-21T06:42:45;5.10;99.90
33207;DHT22;19565;46.602;11.534;2023-11-21T06:45:13;5.00;99.90
33207;DHT22;19565;46.602;11.534;2023-11-21T06:47:42;5.10;99.90
33207;DHT22;19565;46.602;11.534;2023-11-21T06:50:11;5.20;99.90
33207;DHT22;19565;46.602;11.534;2023-11-21T06:52:39;5.20;99.90
33207;DHT22;19565;46.602;11.534;2023-11-21T06:55:09;5.20;99.90
33207;DHT22;19565;46.602;11.534;2023-11-21T06:57:37;5.20;99.90
33207;DHT22;19565;46.602;11.534;2023-11-21T07:00:06;5.20;99.90
33207;DHT22;19565;46.602;11.534;2023-11-21T07:02:36;5.20;99.90
33207;DHT22;19565;46.602;11.534;2023-11-21T07:05:05;5.20;99.90
33207;DHT22;19565;46.602;11.534;2023-11-21T07:07:33;5.30;99.90
33207;DHT22;19565;46.602;11.534;2023-11-21T07:10:03;5.20;99.90
33207;DHT22;19565;46.602;11.534;2023-11-21T07:12:33;5.20;99.90
33207;DHT22;19565;46.602;11.534;2023-11-21T07:15:02;5.20;99.90
33207;DHT22;19565;46.602;11.534;2023-11-21T07:17:32;5.20;99.90
33207;DHT22;19565;46.602;11.534;2023-11-21T07:20:01;5.30;99.90
33207;DHT22;19565;46.602;11.534;2023-11-21T07:22:29;5.30;99.90
33207;DHT22;19565;46.602;11.534;2023-11-21T07:24:57;5.00;99.90
33207;DHT22;19565;46.602;11.534;2023-11-21T07:27:26;4.80;99.90
33207;DHT22;19565;46.602;11.534;2023-11-21T07:29:55;4.70;99.90
33207;DHT22;19565;46.602;11.534;2023-11-21T07:32:24;4.80;99.90
33207;DHT22;19565;46.602;11.534;2023-11-21T07:34:55;4.90;99.90
33207;DHT22;19565;46.602;11.534;2023-11-21T07:37:25;4.90;99.90
33207;DHT22;19565;46.602;11.534;2023-11-21T07:39:55;5.10;99.90
33207;DHT22;19565;46.602;11.534;2023-11-21T07:42:24;5.10;99.90
33207;DHT22;19565;46.602;11.534;2023-11-21T07:44:55;4.90;99.90
33207;DHT22;19565;46.602;11.534;2023-11-21T07:47:23;4.90;99.90
33207;DHT22;19565;46.602;11.534;2023-11-21T07:49:54;5.00;99.90
33207;DHT22;19565;46.602;11.534;2023-11-21T07:52:23;5.00;99.90
33207;DHT22;19565;46.602;11.534;2023-11-21T07:54:51;4.90;99.90
33207;DHT22;19565;46.602;11.534;2023-11-21T07:57:19;4.90;99.90
33207;DHT22;19565;46.602;11.534;2023-11-21T07:59:47;4.90;99.90
33207;DHT22;19565;46.602;11.534;2023-11-21T08:02:16;4.90;99.90
33207;DHT22;19565;46.602;11.534;2023-11-21T08:04:45;5.00;99.90
33207;DHT22;19565;46.602;11.534;2023-11-21T08:07:16;5.10;99.90
33207;DHT22;19565;46.602;11.534;2023-11-21T08:09:44;5.20;99.90
33207;DHT22;19565;46.602;11.534;2023-11-21T08:12:14;5.30;99.90
33207;DHT22;19565;46.602;11.534;2023-11-21T08:14:42;5.30;99.90
33207;DHT22;19565;46.602;11.534;2023-11-21T08:17:11;5.40;99.90
33207;DHT22;19565;46.602;11.534;2023-11-21T08:19:42;5.40;99.90
33207;DHT22;19565;46.602;11.534;2023-11-21T08:22:10;5.50;99.90
33207;DHT22;19565;46.602;11.534;2023-11-21T08:24:38;5.50;99.90
33207;DHT22;19565;46.602;11.534;2023-11-21T08:27:06;5.30;99.90
33207;DHT22;19565;46.602;11.534;2023-11-21T08:29:34;5.20;99.90
33207;DHT22;19565;46.602;11.534;2023-11-21T08:32:03;5.10;99.90
33207;DHT22;19565;46.602;11.534;2023-11-21T08:34:32;5.10;99.90
33207;DHT22;19565;46.602;11.534;2023-11-21T08:37:02;5.20;99.90
33207;DHT22;19565;46.602;11.534;2023-11-21T08:39:30;5.30;99.90
33207;DHT22;19565;46.602;11.534;2023-11-21T08:41:58;5.30;99.90
33207;DHT22;19565;46.602;11.534;2023-11-21T08:44:26;5.30;99.90
33207;DHT22;19565;46.602;11.534;2023-11-21T08:46:54;5.30;99.90
33207;DHT22;19565;46.602;11.534;2023-11-21T08:49:21;5.30;99.90
33207;DHT22;19565;46.602;11.534;2023-11-21T08:51:49;5.30;99.90
33207;DHT22;19565;46.602;11.534;2023-11-21T08:54:19;5.30;99.90
33207;DHT22;19565;46.602;11.534;2023-11-21T08:56:47;5.30;99.90
33207;DHT22;19565;46.602;11.534;2023-11-21T08:59:16;5.30;99.90
33207;DHT22;19565;46.602;11.534;2023-11-21T09:01:44;5.30;99.90
33207;DHT22;19565;46.602;11.534;2023-11-21T09:04:13;5.50;99.90
33207;DHT22;19565;46.602;11.534;2023-11-21T09:06:41;5.60;99.90
33207;DHT22;19565;46.602;11.534;2023-11-21T09:09:09;5.60;99.90
33207;DHT22;19565;46.602;11.534;2023-11-21T09:11:39;5.60;99.90
33207;DHT22;19565;46.602;11.534;2023-11-21T09:14:07;5.70;99.90
33207;DHT22;19565;46.602;11.534;2023-11-21T09:16:35;5.80;99.90
33207;DHT22;19565;46.602;11.534;2023-11-21T09:19:03;5.90;99.90
33207;DHT22;19565;46.602;11.534;2023-11-21T09:21:32;5.90;99.90
33207;DHT22;19565;46.602;11.534;2023-11-21T09:24:01;5.90;99.90
33207;DHT22;19565;46.602;11.534;2023-11-21T09:26:29;5.90;99.90
33207;DHT22;19565;46.602;11.534;2023-11-21T09:28:58;5.90;99.90
33207;DHT22;19565;46.602;11.534;2023-11-21T09:31:26;5.80;99.90
33207;DHT22;19565;46.602;11.534;2023-11-21T09:33:54;5.80;99.90
33207;DHT22;19565;46.602;11.534;2023-11-21T09:36:24;5.80;99.90
33207;DHT22;19565;46.602;11.534;2023-11-21T09:38:54;5.90;99.90
33207;DHT22;19565;46.602;11.534;2023-11-21T09:41:29;5.90;99.90
33207;DHT22;19565;46.602;11.534;2023-11-21T09:44:05;6.00;99.90
33207;DHT22;19565;46.602;11.534;2023-11-21T09:46:34;6.10;99.90
33207;DHT22;19565;46.602;11.534;2023-11-21T09:49:09;6.20;99.90
33207;DHT22;19565;46.602;11.534;2023-11-21T09:51:39;6.20;99.90
33207;DHT22;19565;46.602;11.534;2023-11-21T09:54:10;6.30;99.90
33207;DHT22;19565;46.602;11.534;2023-11-21T09:56:38;6.30;99.90
33207;DHT22;19565;46.602;11.534;2023-11-21T09:59:10;6.40;99.90
33207;DHT22;19565;46.602;11.534;2023-11-21T10:01:42;6.50;99.90
33207;DHT22;19565;46.602;11.534;2023-11-21T10:04:10;6.50;99.90
33207;DHT22;19565;46.602;11.534;2023-11-21T10:06:39;6.60;99.90
33207;DHT22;19565;46.602;11.534;2023-11-21T10:09:10;6.60;99.90
33207;DHT22;19565;46.602;11.534;2023-11-21T10:11:40;6.70;99.90
33207;DHT22;19565;46.602;11.534;2023-11-21T10:14:11;6.70;99.90
33207;DHT22;19565;46.602;11.534;2023-11-21T10:16:41;6.80;99.90
33207;DHT22;19565;46.602;11.534;2023-11-21T10:19:10;6.90;99.90
33207;DHT22;19565;46.602;11.534;2023-11-21T10:21:42;7.00;99.90
33207;DHT22;19565;46.602;11.534;2023-11-21T10:24:11;7.20;99.90
33207;DHT22;19565;46.602;11.534;2023-11-21T10:26:39;7.20;99.90
33207;DHT22;19565;46.602;11.534;2023-11-21T10:29:20;7.30;99.90
33207;DHT22;19565;46.602;11.534;2023-11-21T10:31:49;7.30;99.90
33207;DHT22;19565;46.602;11.534;2023-11-21T10:34:19;7.40;99.90
33207;DHT22;19565;46.602;11.534;2023-11-21T10:36:48;7.50;99.90
33207;DHT22;19565;46.602;11.534;2023-11-21T10:39:17;7.50;99.90
33207;DHT22;19565;46.602;11.534;2023-11-21T10:41:46;7.60;99.90
33207;DHT22;19565;46.602;11.534;2023-11-21T10:44:15;7.60;99.90
33207;DHT22;19565;46.602;11.534;2023-11-21T10:46:51;7.60;99.90
33207;DHT22;19565;46.602;11.534;2023-11-21T10:49:23;7.70;99.90
33207;DHT22;19565;46.602;11.534;2023-11-21T10:51:53;7.70;99.90
33207;DHT22;19565;46.602;11.534;2023-11-21T10:54:23;7.70;99.90
33207;DHT22;19565;46.602;11.534;2023-11-21T10:56:56;7.70;99.90
33207;DHT22;19565;46.602;11.534;2023-11-21T10:59:28;7.80;99.90
33207;DHT22;19565;46.602;11.534;2023-11-21T11:01:59;7.90;99.90
33207;DHT22;19565;46.602;11.534;2023-11-21T11:04:32;7.90;99.90
33207;DHT22;19565;46.602;11.534;2023-11-21T11:07:02;8.00;99.90
33207;DHT22;19565;46.602;11.534;2023-11-21T11:09:32;8.00;99.90
33207;DHT22;19565;46.602;11.534;2023-11-21T11:12:02;8.10;99.90
33207;DHT22;19565;46.602;11.534;2023-11-21T11:14:31;8.20;99.90
33207;DHT22;19565;46.602;11.534;2023-11-21T11:17:02;8.20;99.90
33207;DHT22;19565;46.602;11.534;2023-11-21T11:19:33;8.30;99.90
33207;DHT22;19565;46.602;11.534;2023-11-21T11:22:10;8.30;99.90
33207;DHT22;19565;46.602;11.534;2023-11-21T11:25:10;8.40;99.90
33207;DHT22;19565;46.602;11.534;2023-11-21T11:27:54;8.40;99.90
33207;DHT22;19565;46.602;11.534;2023-11-21T11:30:37;8.50;99.90
33207;DHT22;19565;46.602;11.534;2023-11-21T11:33:18;8.50;99.90
33207;DHT22;19565;46.602;11.534;2023-11-21T11:36:00;8.50;99.90
33207;DHT22;19565;46.602;11.534;2023-11-21T11:38:31;8.60;99.90
33207;DHT22;19565;46.602;11.534;2023-11-21T11:41:02;8.60;99.90
33207;DHT22;19565;46.602;11.534;2023-11-21T11:43:32;8.70;99.90
33207;DHT22;19565;46.602;11.534;2023-11-21T11:46:06;8.80;99.90
33207;DHT22;19565;46.602;11.534;2023-11-21T11:48:37;8.70;99.90
33207;DHT22;19565;46.602;11.534;2023-11-21T11:51:10;8.80;99.90
33207;DHT22;19565;46.602;11.534;2023-11-21T11:53:41;8.80;99.90
33207;DHT22;19565;46.602;11.534;2023-11-21T11:56:23;8.90;99.90
33207;DHT22;19565;46.602;11.534;2023-11-21T11:58:53;8.90;99.90
33207;DHT22;19565;46.602;11.534;2023-11-21T12:01:24;8.90;99.90
33207;DHT22;19565;46.602;11.534;2023-11-21T12:04:24;9.00;99.90
33207;DHT22;19565;46.602;11.534;2023-11-21T12:07:02;9.00;99.90
33207;DHT22;19565;46.602;11.534;2023-11-21T12:09:31;9.10;99.90
33207;DHT22;19565;46.602;11.534;2023-11-21T12:12:00;9.10;99.90
33207;DHT22;19565;46.602;11.534;2023-11-21T12:14:28;9.10;99.90
33207;DHT22;19565;46.602;11.534;2023-11-21T12:16:58;9.10;99.90
33207;DHT22;19565;46.602;11.534;2023-11-21T12:19:28;9.10;99.90
33207;DHT22;19565;46.602;11.534;2023-11-21T12:21:56;9.20;99.90
33207;DHT22;19565;46.602;11.534;2023-11-21T12:24:24;9.20;99.90
33207;DHT22;19565;46.602;11.534;2023-11-21T12:26:52;9.20;99.90
33207;DHT22;19565;46.602;11.534;2023-11-21T12:29:20;9.20;99.90
33207;DHT22;19565;46.602;11.534;2023-11-21T12:31:49;9.10;99.90
33207;DHT22;19565;46.602;11.534;2023-11-21T12:34:17;9.10;99.90
33207;DHT22;19565;46.602;11.534;2023-11-21T12:36:47;9.10;99.90
33207;DHT22;19565;46.602;11.534;2023-11-21T12:39:16;9.10;99.90
33207;DHT22;19565;46.602;11.534;2023-11-21T12:41:44;9.10;99.90
33207;DHT22;19565;46.602;11.534;2023-11-21T12:44:12;9.10;99.90
33207;DHT22;19565;46.602;11.534;2023-11-21T12:46:42;9.10;99.90
33207;DHT22;19565;46.602;11.534;2023-11-21T12:49:12;9.20;99.90
33207;DHT22;19565;46.602;11.534;2023-11-21T12:51:46;9.20;99.90
33207;DHT22;19565;46.602;11.534;2023-11-21T12:54:14;9.20;99.90
33207;DHT22;19565;46.602;11.534;2023-11-21T12:56:45;9.20;99.90
33207;DHT22;19565;46.602;11.534;2023-11-21T12:59:15;9.20;99.90
33207;DHT22;19565;46.602;11.534;2023-11-21T13:01:45;9.20;99.90
33207;DHT22;19565;46.602;11.534;2023-11-21T13:04:13;9.20;99.90
33207;DHT22;19565;46.602;11.534;2023-11-21T13:06:41;9.20;99.90
33207;DHT22;19565;46.602;11.534;2023-11-21T13:09:11;9.30;99.90
33207;DHT22;19565;46.602;11.534;2023-11-21T13:11:43;9.30;99.90
33207;DHT22;19565;46.602;11.534;2023-11-21T13:14:12;9.30;99.90
33207;DHT22;19565;46.602;11.534;2023-11-21T13:16:41;9.30;99.90
33207;DHT22;19565;46.602;11.534;2023-11-21T13:19:13;9.40;99.90
33207;DHT22;19565;46.602;11.534;2023-11-21T13:21:41;9.40;99.90
33207;DHT22;19565;46.602;11.534;2023-11-21T13:24:11;9.40;99.90
33207;DHT22;19565;46.602;11.534;2023-11-21T13:26:41;9.40;99.90
33207;DHT22;19565;46.602;11.534;2023-11-21T13:29:09;9.40;99.90
33207;DHT22;19565;46.602;11.534;2023-11-21T13:31:39;9.40;99.90
33207;DHT22;19565;46.602;11.534;2023-11-21T13:34:08;9.40;99.90
33207;DHT22;19565;46.602;11.534;2023-11-21T13:36:46;9.40;99.90
33207;DHT22;19565;46.602;11.534;2023-11-21T13:39:16;9.40;99.90
33207;DHT22;19565;46.602;11.534;2023-11-21T13:41:45;9.30;99.90
33207;DHT22;19565;46.602;11.534;2023-11-21T13:44:15;9.30;99.90
33207;DHT22;19565;46.602;11.534;2023-11-21T13:46:54;9.30;99.90
33207;DHT22;19565;46.602;11.534;2023-11-21T13:49:24;9.30;99.90
33207;DHT22;19565;46.602;11.534;2023-11-21T13:51:53;9.20;99.90
33207;DHT22;19565;46.602;11.534;2023-11-21T13:54:23;9.20;99.90
33207;DHT22;19565;46.602;11.534;2023-11-21T13:56:52;9.20;99.90
33207;DHT22;19565;46.602;11.534;2023-11-21T13:59:21;9.20;99.90
33207;DHT22;19565;46.602;11.534;2023-11-21T14:01:52;9.20;99.90
33207;DHT22;19565;46.602;11.534;2023-11-21T14:04:25;9.30;99.90
33207;DHT22;19565;46.602;11.534;2023-11-21T14:07:13;9.20;99.90
33207;DHT22;19565;46.602;11.534;2023-11-21T14:09:54;9.20;99.90
33207;DHT22;19565;46.602;11.534;2023-11-21T14:12:22;9.20;99.90
33207;DHT22;19565;46.602;11.534;2023-11-21T14:14:52;9.20;99.90
33207;DHT22;19565;46.602;11.534;2023-11-21T14:17:21;9.20;99.90
33207;DHT22;19565;46.602;11.534;2023-11-21T14:19:51;9.10;99.90
33207;DHT22;19565;46.602;11.534;2023-11-21T14:22:19;9.10;99.90
33207;DHT22;19565;46.602;11.534;2023-11-21T14:24:47;9.00;99.90
33207;DHT22;19565;46.602;11.534;2023-11-21T14:27:18;9.00;99.90
33207;DHT22;19565;46.602;11.534;2023-11-21T14:29:46;9.00;99.90
33207;DHT22;19565;46.602;11.534;2023-11-21T14:32:15;8.90;99.90
33207;DHT22;19565;46.602;11.534;2023-11-21T14:34:44;8.90;99.90
33207;DHT22;19565;46.602;11.534;2023-11-21T14:37:14;8.90;99.90
33207;DHT22;19565;46.602;11.534;2023-11-21T14:39:43;8.80;99.90
33207;DHT22;19565;46.602;11.534;2023-11-21T14:42:14;8.90;99.90
33207;DHT22;19565;46.602;11.534;2023-11-21T14:44:44;8.80;99.90
33207;DHT22;19565;46.602;11.534;2023-11-21T14:47:12;8.80;99.90
33207;DHT22;19565;46.602;11.534;2023-11-21T14:49:43;8.80;99.90
33207;DHT22;19565;46.602;11.534;2023-11-21T14:52:19;8.70;99.90
33207;DHT22;19565;46.602;11.534;2023-11-21T14:55:01;8.70;99.90
33207;DHT22;19565;46.602;11.534;2023-11-21T14:57:53;8.70;99.90
33207;DHT22;19565;46.602;11.534;2023-11-21T15:00:22;8.60;99.90
33207;DHT22;19565;46.602;11.534;2023-11-21T15:03:08;8.60;99.90
33207;DHT22;19565;46.602;11.534;2023-11-21T15:05:37;8.60;99.90
33207;DHT22;19565;46.602;11.534;2023-11-21T15:08:06;8.60;99.90
33207;DHT22;19565;46.602;11.534;2023-11-21T15:10:47;8.60;99.90
33207;DHT22;19565;46.602;11.534;2023-11-21T15:13:20;8.60;99.90
33207;DHT22;19565;46.602;11.534;2023-11-21T15:15:50;8.60;99.90
33207;DHT22;19565;46.602;11.534;2023-11-21T15:18:20;8.50;99.90
33207;DHT22;19565;46.602;11.534;2023-11-21T15:20:49;8.50;99.90
33207;DHT22;19565;46.602;11.534;2023-11-21T15:23:17;8.50;99.90
33207;DHT22;19565;46.602;11.534;2023-11-21T15:25:46;8.50;99.90
33207;DHT22;19565;46.602;11.534;2023-11-21T15:28:14;8.50;99.90
33207;DHT22;19565;46.602;11.534;2023-11-21T15:30:44;8.50;99.90
33207;DHT22;19565;46.602;11.534;2023-11-21T15:33:16;8.50;99.90
33207;DHT22;19565;46.602;11.534;2023-11-21T15:35:44;8.50;99.90
33207;DHT22;19565;46.602;11.534;2023-11-21T15:38:12;8.50;99.90
33207;DHT22;19565;46.602;11.534;2023-11-21T15:40:40;8.50;99.90
33207;DHT22;19565;46.602;11.534;2023-11-21T15:43:10;8.50;99.90
33207;DHT22;19565;46.602;11.534;2023-11-21T15:45:38;8.50;99.90